createdAt,value
2017-11-23T00:01:38.905Z,4.43
2017-11-23T00:04:07.386Z,4.44
2017-11-23T00:06:35.713Z,4.48
2017-11-23T00:09:04.071Z,4.47
2017-11-23T00:11:31.648Z,4.28
2017-11-23T00:13:59.958Z,4.20
2017-11-23T00:16:28.309Z,4.18
2017-11-23T00:18:56.685Z,4.08
2017-11-23T00:21:24.250Z,4.02
2017-11-23T00:23:52.682Z,3.95
2017-11-23T00:26:21.039Z,4.03
2017-11-23T00:28:49.393Z,3.97
2017-11-23T00:31:16.963Z,3.94
2017-11-23T00:33:44.533Z,3.94
2017-11-23T00:36:12.109Z,3.93
2017-11-23T00:38:40.569Z,3.85
2017-11-23T00:41:08.165Z,3.86
2017-11-23T00:43:36.776Z,3.88
2017-11-23T00:46:05.158Z,3.82
2017-11-23T00:48:33.513Z,3.81
2017-11-23T00:51:01.082Z,3.86
2017-11-23T00:53:29.541Z,3.93
2017-11-23T00:55:57.102Z,3.92
2017-11-23T00:58:24.670Z,3.90
2017-11-23T01:00:52.241Z,3.89
2017-11-23T01:03:19.799Z,3.93
2017-11-23T01:05:47.365Z,3.89
2017-11-23T01:08:14.930Z,3.99
2017-11-23T01:10:42.495Z,4.03
2017-11-23T01:13:10.061Z,4.08
2017-11-23T01:15:43.065Z,4.03
2017-11-23T01:18:10.978Z,4.02
2017-11-23T01:20:38.549Z,3.89
2017-11-23T01:23:06.155Z,3.94
2017-11-23T01:25:34.493Z,3.99
2017-11-23T01:28:02.055Z,3.96
2017-11-23T01:30:29.613Z,3.90
2017-11-23T01:32:58.068Z,3.87
2017-11-23T01:35:25.642Z,4.06
2017-11-23T01:37:54.120Z,4.11
2017-11-23T01:40:22.618Z,4.09
2017-11-23T01:42:50.187Z,4.14
2017-11-23T01:45:18.667Z,4.10
2017-11-23T01:47:47.030Z,4.05
2017-11-23T01:50:14.593Z,4.07
2017-11-23T01:52:42.159Z,4.27
2017-11-23T01:55:10.726Z,4.33
2017-11-23T01:57:39.098Z,4.29
2017-11-23T02:00:06.774Z,4.17
2017-11-23T02:02:35.157Z,4.17
2017-11-23T02:05:02.758Z,4.03
2017-11-23T02:07:30.315Z,4.01
2017-11-23T02:09:58.657Z,4.03
2017-11-23T02:12:26.221Z,4.03
2017-11-23T02:14:54.788Z,4.09
2017-11-23T02:17:23.159Z,4.10
2017-11-23T02:19:51.586Z,4.07
2017-11-23T02:22:19.183Z,4.06
2017-11-23T02:24:47.545Z,4.19
2017-11-23T02:27:16.074Z,4.28
2017-11-23T02:29:44.420Z,4.18
2017-11-23T02:32:12.763Z,4.24
2017-11-23T02:34:41.111Z,4.27
2017-11-23T02:37:08.682Z,4.27
2017-11-23T02:39:36.962Z,4.26
2017-11-23T02:42:04.556Z,4.29
2017-11-23T02:44:32.125Z,4.33
2017-11-23T02:46:59.686Z,4.34
2017-11-23T02:49:27.247Z,4.22
2017-11-23T02:51:54.849Z,4.22
2017-11-23T02:54:23.345Z,4.15
2017-11-23T02:56:51.686Z,4.11
2017-11-23T02:59:20.046Z,4.13
2017-11-23T03:01:47.609Z,4.21
2017-11-23T03:04:16.083Z,4.26
2017-11-23T03:06:43.647Z,4.32
2017-11-23T03:09:11.207Z,4.30
2017-11-23T03:11:39.569Z,4.37
2017-11-23T03:14:07.129Z,4.49
2017-11-23T03:16:34.692Z,4.51
2017-11-23T03:19:03.236Z,4.54
2017-11-23T03:21:30.829Z,4.68
2017-11-23T03:23:58.425Z,4.74
2017-11-23T03:26:25.977Z,4.74
2017-11-23T03:28:54.478Z,4.84
2017-11-23T03:31:22.035Z,4.97
2017-11-23T03:33:50.428Z,5.05
2017-11-23T03:36:17.985Z,5.04
2017-11-23T03:38:45.545Z,5.07
2017-11-23T03:41:13.133Z,5.14
2017-11-23T03:43:40.686Z,5.27
2017-11-23T03:46:08.280Z,5.26
2017-11-23T03:48:36.758Z,5.16
2017-11-23T03:51:04.355Z,5.14
2017-11-23T03:53:31.949Z,5.02
2017-11-23T03:55:59.500Z,5.08
2017-11-23T03:58:28.023Z,4.99
2017-11-23T04:00:56.390Z,4.97
2017-11-23T04:03:23.945Z,4.81
2017-11-23T04:05:51.504Z,4.78
2017-11-23T04:08:19.065Z,4.73
2017-11-23T04:10:46.627Z,4.78
2017-11-23T04:13:14.190Z,4.78
2017-11-23T04:15:41.752Z,4.73
2017-11-23T04:18:09.310Z,4.70
2017-11-23T04:20:36.872Z,4.76
2017-11-23T04:23:04.470Z,4.74
2017-11-23T04:25:32.029Z,4.82
2017-11-23T04:27:59.590Z,4.75
2017-11-23T04:30:27.151Z,4.75
2017-11-23T04:32:54.711Z,4.67
2017-11-23T04:35:22.278Z,4.69
2017-11-23T04:37:49.832Z,4.74
2017-11-23T04:40:17.433Z,4.78
2017-11-23T04:42:45.933Z,4.72
2017-11-23T04:45:13.490Z,4.74
2017-11-23T04:47:41.045Z,4.74
2017-11-23T04:50:09.510Z,4.75
2017-11-23T04:52:37.845Z,4.70
2017-11-23T04:55:06.161Z,4.65
2017-11-23T04:57:34.666Z,4.64
2017-11-23T05:00:02.925Z,4.60
2017-11-23T05:02:31.353Z,4.55
2017-11-23T05:04:58.978Z,4.52
2017-11-23T05:07:26.600Z,4.44
2017-11-23T05:09:54.154Z,4.42
2017-11-23T05:12:21.707Z,4.33
2017-11-23T05:14:50.153Z,4.26
2017-11-23T05:17:17.710Z,4.23
2017-11-23T05:19:46.156Z,4.18
2017-11-23T05:22:13.721Z,4.17
2017-11-23T05:24:41.281Z,4.14
2017-11-23T05:27:08.864Z,4.11
2017-11-23T05:29:37.210Z,4.03
2017-11-23T05:32:04.769Z,4.09
2017-11-23T05:34:33.241Z,4.12
2017-11-23T05:37:00.814Z,4.08
2017-11-23T05:39:29.182Z,4.15
2017-11-23T05:41:57.668Z,4.16
2017-11-23T05:44:26.010Z,4.09
2017-11-23T05:46:54.340Z,4.03
2017-11-23T05:49:21.892Z,4.15
2017-11-23T05:51:49.452Z,4.05
2017-11-23T05:54:17.008Z,4.12
2017-11-23T05:56:44.610Z,4.04
2017-11-23T05:59:12.168Z,4.03
2017-11-23T06:01:39.717Z,4.05
2017-11-23T06:04:07.268Z,4.04
2017-11-23T06:06:34.816Z,4.03
2017-11-23T06:09:02.369Z,4.00
2017-11-23T06:11:29.921Z,3.95
2017-11-23T06:13:58.390Z,3.98
2017-11-23T06:16:25.941Z,3.92
2017-11-23T06:18:53.496Z,4.00
2017-11-23T06:21:21.064Z,3.90
2017-11-23T06:23:48.619Z,3.92
2017-11-23T06:26:16.174Z,3.96
2017-11-23T06:28:43.731Z,3.88
2017-11-23T06:31:11.282Z,3.86
2017-11-23T06:33:38.846Z,3.92
2017-11-23T06:36:06.410Z,3.90
2017-11-23T06:38:34.030Z,3.92
2017-11-23T06:41:01.590Z,3.98
2017-11-23T06:43:29.153Z,4.07
2017-11-23T06:45:56.710Z,4.12
2017-11-23T06:48:24.274Z,4.10
2017-11-23T06:50:51.830Z,4.14
2017-11-23T06:53:20.495Z,4.22
2017-11-23T06:55:48.060Z,4.21
2017-11-23T06:58:15.619Z,4.27
2017-11-23T07:00:43.181Z,4.27
2017-11-23T07:03:10.738Z,4.34
2017-11-23T07:05:38.294Z,4.42
2017-11-23T07:08:05.845Z,4.48
2017-11-23T07:10:33.398Z,4.73
2017-11-23T07:13:00.962Z,4.78
2017-11-23T07:15:28.518Z,4.85
2017-11-23T07:18:00.923Z,4.93
2017-11-23T07:20:29.433Z,4.97
2017-11-23T07:22:57.074Z,5.13
2017-11-23T07:25:24.639Z,5.22
2017-11-23T07:27:52.205Z,5.27
2017-11-23T07:30:19.757Z,5.33
2017-11-23T07:32:47.422Z,5.52
2017-11-23T07:35:14.983Z,5.65
2017-11-23T07:37:42.538Z,5.74
2017-11-23T07:40:10.096Z,5.78
2017-11-23T07:42:37.657Z,5.88
2017-11-23T07:45:05.216Z,5.98
2017-11-23T07:47:32.780Z,6.04
2017-11-23T07:50:00.346Z,6.14
2017-11-23T07:52:27.905Z,6.22
2017-11-23T07:54:55.474Z,6.32
2017-11-23T07:57:23.034Z,6.39
2017-11-23T07:59:50.597Z,6.44
2017-11-23T08:02:18.158Z,6.48
2017-11-23T08:04:45.714Z,6.71
2017-11-23T08:07:13.273Z,6.67
2017-11-23T08:09:40.826Z,6.75
2017-11-23T08:12:08.389Z,6.78
2017-11-23T08:14:35.956Z,6.81
2017-11-23T08:17:03.538Z,6.97
2017-11-23T08:19:31.085Z,7.01
2017-11-23T08:21:58.641Z,7.03
2017-11-23T08:24:26.206Z,7.21
2017-11-23T08:26:53.761Z,7.28
2017-11-23T08:29:21.315Z,7.43
2017-11-23T08:31:48.871Z,7.58
2017-11-23T08:34:16.442Z,7.62
2017-11-23T08:36:44.001Z,7.77
2017-11-23T08:39:11.554Z,7.80
2017-11-23T08:41:39.154Z,7.79
2017-11-23T08:44:07.681Z,7.89
2017-11-23T08:46:35.242Z,7.91
2017-11-23T08:49:02.802Z,7.97
2017-11-23T08:51:30.405Z,8.00
2017-11-23T08:53:57.966Z,8.04
2017-11-23T08:56:25.514Z,8.11
2017-11-23T08:58:53.882Z,8.11
2017-11-23T09:01:21.470Z,8.20
2017-11-23T09:03:49.073Z,8.24
2017-11-23T09:06:16.675Z,8.35
2017-11-23T09:08:44.231Z,8.42
2017-11-23T09:11:11.789Z,8.41
2017-11-23T09:13:39.349Z,8.40
2017-11-23T09:16:06.943Z,8.51
2017-11-23T09:18:34.502Z,8.55
2017-11-23T09:21:02.065Z,8.61
2017-11-23T09:23:30.414Z,8.59
2017-11-23T09:25:58.875Z,8.73
2017-11-23T09:28:26.443Z,8.87
2017-11-23T09:30:54.004Z,8.93
2017-11-23T09:33:21.570Z,8.98
2017-11-23T09:35:49.133Z,9.08
2017-11-23T09:38:17.462Z,9.16
2017-11-23T09:40:46.065Z,9.15
2017-11-23T09:43:13.626Z,9.28
2017-11-23T09:45:41.183Z,9.48
2017-11-23T09:48:08.738Z,9.51
2017-11-23T09:50:36.289Z,9.54
2017-11-23T09:53:03.851Z,9.59
2017-11-23T09:55:31.451Z,9.69
2017-11-23T09:57:59.012Z,9.79
2017-11-23T10:00:26.578Z,9.73
2017-11-23T10:02:54.137Z,9.71
2017-11-23T10:05:21.738Z,9.88
2017-11-23T10:07:49.298Z,9.85
2017-11-23T10:10:16.861Z,9.89
2017-11-23T10:12:44.418Z,9.82
2017-11-23T10:15:12.007Z,9.81
2017-11-23T10:17:39.566Z,9.80
2017-11-23T10:20:07.126Z,9.73
2017-11-23T10:22:34.685Z,9.74
2017-11-23T10:25:03.039Z,9.71
2017-11-23T10:27:30.633Z,9.76
2017-11-23T10:29:58.193Z,9.75
2017-11-23T10:32:25.765Z,9.61
2017-11-23T10:34:53.315Z,9.68
2017-11-23T10:37:26.394Z,9.73
2017-11-23T10:39:54.849Z,9.83
2017-11-23T10:42:22.442Z,9.76
2017-11-23T10:44:49.999Z,9.89
2017-11-23T10:47:17.608Z,9.82
2017-11-23T10:49:45.850Z,10.13
2017-11-23T10:52:13.413Z,10.11
2017-11-23T10:54:40.973Z,10.11
2017-11-23T10:57:08.532Z,10.21
2017-11-23T10:59:36.093Z,10.21
2017-11-23T11:02:03.657Z,10.32
2017-11-23T11:04:31.259Z,10.38
2017-11-23T11:06:58.822Z,10.49
2017-11-23T11:09:26.386Z,10.49
2017-11-23T11:11:53.990Z,10.63
2017-11-23T11:14:21.565Z,10.75
2017-11-23T11:16:49.163Z,10.90
2017-11-23T11:19:16.721Z,11.01
2017-11-23T11:21:44.280Z,11.01
2017-11-23T11:24:11.841Z,11.07
2017-11-23T11:26:39.438Z,11.09
2017-11-23T11:29:07.006Z,11.26
2017-11-23T11:31:34.572Z,11.34
2017-11-23T11:34:02.136Z,11.46
2017-11-23T11:36:29.698Z,11.52
2017-11-23T11:38:57.267Z,11.69
2017-11-23T11:41:24.830Z,11.67
2017-11-23T11:43:52.393Z,11.70
2017-11-23T11:46:19.990Z,11.91
2017-11-23T11:48:47.554Z,11.96
2017-11-23T11:51:15.110Z,11.91
2017-11-23T11:53:42.678Z,11.87
2017-11-23T11:56:10.932Z,11.95
2017-11-23T11:58:38.498Z,11.96
2017-11-23T12:01:06.070Z,11.86
2017-11-23T12:03:33.632Z,11.91
2017-11-23T12:06:01.199Z,12.00
2017-11-23T12:25:58.030Z,11.88
2017-11-23T12:28:37.286Z,11.90
2017-11-23T12:31:04.844Z,11.92
2017-11-23T12:33:32.405Z,11.80
2017-11-23T12:35:59.962Z,11.98
2017-11-23T12:38:27.527Z,11.93
2017-11-23T12:40:55.104Z,12.04
2017-11-23T12:43:22.673Z,11.93
2017-11-23T12:45:50.230Z,11.93
2017-11-23T12:48:17.794Z,11.88
2017-11-23T12:50:45.354Z,11.85
2017-11-23T12:53:12.918Z,11.91
2017-11-23T12:55:40.478Z,11.92
2017-11-23T12:58:08.042Z,11.82
2017-11-23T13:00:35.602Z,11.80
2017-11-23T13:03:03.982Z,11.67
2017-11-23T13:05:31.548Z,11.64
2017-11-23T13:08:00.007Z,11.63
2017-11-23T13:10:27.609Z,11.75
2017-11-23T13:12:55.174Z,11.79
2017-11-23T13:15:22.746Z,11.73
2017-11-23T13:17:50.311Z,11.74
2017-11-23T13:20:18.806Z,11.77
2017-11-23T13:22:46.365Z,11.70
2017-11-23T13:25:13.934Z,11.62
2017-11-23T13:27:41.508Z,11.59
2017-11-23T13:30:09.847Z,11.62
2017-11-23T13:32:37.425Z,11.60
2017-11-23T13:35:04.994Z,11.43
2017-11-23T13:37:33.396Z,11.52
2017-11-23T13:40:00.993Z,11.44
2017-11-23T13:42:28.610Z,11.54
2017-11-23T13:44:56.986Z,11.50
2017-11-23T13:47:24.558Z,11.52
2017-11-23T13:49:52.130Z,11.46
2017-11-23T13:52:19.694Z,11.43
2017-11-23T13:54:48.072Z,11.38
2017-11-23T13:57:16.414Z,11.35
2017-11-23T14:02:18.548Z,11.34
2017-11-23T14:04:46.895Z,11.35
2017-11-23T14:07:15.238Z,11.38
2017-11-23T14:09:43.244Z,11.40
2017-11-23T14:12:10.814Z,11.30
2017-11-23T14:14:38.372Z,11.30
2017-11-23T14:17:06.825Z,11.39
2017-11-23T14:19:34.391Z,11.43
2017-11-23T14:22:02.644Z,11.57
2017-11-23T14:24:30.246Z,11.58
2017-11-23T14:26:58.727Z,11.74
2017-11-23T14:29:26.293Z,11.87
2017-11-23T14:31:53.902Z,11.88
2017-11-23T14:34:21.467Z,11.87
2017-11-23T14:36:49.038Z,11.80
2017-11-23T14:39:16.598Z,11.95
2017-11-23T14:41:44.155Z,12.02
2017-11-23T14:44:11.752Z,12.14
2017-11-23T14:46:39.314Z,12.13
2017-11-23T14:49:06.889Z,12.09
2017-11-23T14:51:35.156Z,12.05
2017-11-23T14:54:02.711Z,11.94
2017-11-23T14:56:31.195Z,11.83
2017-11-23T14:58:58.793Z,11.71
2017-11-23T15:01:27.194Z,11.53
2017-11-23T15:03:54.764Z,11.49
2017-11-23T15:06:23.150Z,11.34
2017-11-23T15:08:51.505Z,11.29
2017-11-23T15:11:19.842Z,11.23
2017-11-23T15:13:48.213Z,11.19
2017-11-23T15:16:16.578Z,11.22
2017-11-23T15:18:44.920Z,11.11
2017-11-23T15:21:13.302Z,11.06
2017-11-23T15:23:41.683Z,10.98
2017-11-23T15:26:09.240Z,10.99
2017-11-23T15:28:36.810Z,10.96
2017-11-23T15:31:04.370Z,10.96
2017-11-23T15:33:32.846Z,10.86
2017-11-23T15:36:01.217Z,10.86
2017-11-23T15:38:29.701Z,10.87
2017-11-23T15:40:57.274Z,10.84
2017-11-23T15:43:24.842Z,10.76
2017-11-23T15:45:52.405Z,10.73
2017-11-23T15:48:19.966Z,10.70
2017-11-23T15:50:48.461Z,10.80
2017-11-23T15:53:16.822Z,10.84
2017-11-23T15:55:45.267Z,10.96
2017-11-23T15:58:12.822Z,10.92
2017-11-23T16:00:40.387Z,10.86
2017-11-23T16:03:07.956Z,10.91
2017-11-23T16:05:35.558Z,10.85
2017-11-23T16:08:04.043Z,10.79
2017-11-23T16:10:32.496Z,10.83
2017-11-23T16:13:00.066Z,10.79
2017-11-23T16:15:27.634Z,10.78
2017-11-23T16:17:55.986Z,10.79
2017-11-23T16:20:24.379Z,10.76
2017-11-23T16:22:52.723Z,10.73
2017-11-23T16:25:21.061Z,10.81
2017-11-23T16:27:48.627Z,11.02
2017-11-23T16:30:16.195Z,11.05
2017-11-23T16:32:43.753Z,11.14
2017-11-23T16:35:11.324Z,11.27
2017-11-23T16:37:51.626Z,11.41
2017-11-23T16:43:25.348Z,11.63
2017-11-23T16:46:08.399Z,11.77
2017-11-23T16:51:51.693Z,11.71
2017-11-23T16:54:25.338Z,11.61
2017-11-23T16:56:59.447Z,11.63
2017-11-23T16:59:32.701Z,11.57
2017-11-23T17:02:05.899Z,11.58
2017-11-23T17:07:38.138Z,11.35
2017-11-23T17:13:12.335Z,11.18
2017-11-23T17:15:42.416Z,11.18
2017-11-23T17:18:16.310Z,11.07
2017-11-23T17:20:44.690Z,10.99
2017-11-23T17:23:12.962Z,11.04
2017-11-23T17:25:41.337Z,10.98
2017-11-23T17:28:09.693Z,10.91
2017-11-23T17:30:37.250Z,10.91
2017-11-23T17:33:05.805Z,10.85
2017-11-23T17:35:33.365Z,10.83
2017-11-23T17:38:01.862Z,10.80
2017-11-23T17:40:29.457Z,10.81
2017-11-23T17:42:57.803Z,10.78
2017-11-23T17:45:25.379Z,10.81
2017-11-23T17:47:52.947Z,10.81
2017-11-23T17:50:20.515Z,10.84
2017-11-23T17:52:48.081Z,11.01
2017-11-23T17:55:15.691Z,11.07
2017-11-23T18:00:11.158Z,11.32
2017-11-23T18:02:38.745Z,11.29
2017-11-23T18:05:06.315Z,11.25
2017-11-23T18:07:33.896Z,11.26
2017-11-23T18:10:01.525Z,11.31
2017-11-23T18:12:29.093Z,11.35
2017-11-23T18:14:56.656Z,11.56
2017-11-23T18:17:24.223Z,11.61
2017-11-23T18:19:51.813Z,11.49
2017-11-23T18:22:19.386Z,11.45
2017-11-23T18:24:46.949Z,11.31
2017-11-23T18:27:14.513Z,11.23
2017-11-23T18:29:42.086Z,11.17
2017-11-23T18:32:09.648Z,11.09
2017-11-23T18:34:37.213Z,11.10
2017-11-23T18:37:04.779Z,11.02
2017-11-23T18:39:32.348Z,10.98
2017-11-23T18:41:59.927Z,10.94
2017-11-23T18:44:28.447Z,11.01
2017-11-23T18:46:58.125Z,11.07
2017-11-23T18:49:25.689Z,11.18
2017-11-23T18:51:53.260Z,11.31
2017-11-23T18:54:20.833Z,11.34
2017-11-23T18:56:48.414Z,11.35
2017-11-23T18:59:15.978Z,11.34
2017-11-23T19:01:43.542Z,11.29
2017-11-23T19:04:11.149Z,11.10
2017-11-23T19:06:38.714Z,11.05
2017-11-23T19:09:06.274Z,10.95
2017-11-23T19:11:33.842Z,10.87
2017-11-23T19:14:01.421Z,10.72
2017-11-23T19:16:28.981Z,10.74
2017-11-23T19:18:56.552Z,10.68
2017-11-23T19:21:24.116Z,10.59
2017-11-23T19:23:51.695Z,10.61
2017-11-23T19:26:19.266Z,10.55
2017-11-23T19:28:46.837Z,10.44
2017-11-23T19:31:14.406Z,10.37
2017-11-23T19:33:41.970Z,10.34
2017-11-23T19:36:09.542Z,10.31
2017-11-23T19:38:37.102Z,10.24
2017-11-23T19:41:04.680Z,10.30
2017-11-23T19:43:32.246Z,10.35
2017-11-23T19:45:59.812Z,10.25
2017-11-23T19:48:27.374Z,10.24
2017-11-23T19:50:54.937Z,10.20
2017-11-23T19:53:22.501Z,10.22
2017-11-23T19:55:50.062Z,10.31
2017-11-23T20:01:11.563Z,10.22
2017-11-23T20:03:39.950Z,10.44
2017-11-23T20:06:07.513Z,10.49
2017-11-23T20:08:35.079Z,10.54
2017-11-23T20:11:02.685Z,10.65
2017-11-23T20:13:30.260Z,10.74
2017-11-23T20:15:58.715Z,11.11
2017-11-23T20:18:27.167Z,11.14
2017-11-23T20:20:54.729Z,11.14
2017-11-23T20:23:22.290Z,11.37
2017-11-23T20:25:49.853Z,11.39
2017-11-23T20:28:17.426Z,11.42
2017-11-23T20:30:45.778Z,11.41
2017-11-23T20:33:13.399Z,11.52
2017-11-23T20:35:41.000Z,11.50
2017-11-23T20:38:09.471Z,11.51
2017-11-23T20:40:37.079Z,11.55
2017-11-23T20:43:04.645Z,11.66
2017-11-23T20:45:32.217Z,11.65
2017-11-23T20:47:59.785Z,11.72
2017-11-23T20:50:27.354Z,11.81
2017-11-23T20:52:54.919Z,11.87
2017-11-23T20:55:22.481Z,11.88
2017-11-23T20:57:50.043Z,11.85
2017-11-23T21:00:17.654Z,11.90
2017-11-23T21:02:45.346Z,11.92
2017-11-23T21:05:12.905Z,11.86
2017-11-23T21:07:40.482Z,11.81
2017-11-23T21:10:08.334Z,11.92
2017-11-23T21:12:36.234Z,11.92
2017-11-23T21:15:03.901Z,12.05
2017-11-23T21:17:33.177Z,12.00
2017-11-23T21:20:00.738Z,12.05
2017-11-23T21:22:28.298Z,12.11
2017-11-23T21:24:55.893Z,12.05
2017-11-23T21:27:23.455Z,12.03
2017-11-23T21:29:51.024Z,12.01
2017-11-23T21:32:18.581Z,12.06
2017-11-23T21:34:46.997Z,12.19
2017-11-23T21:37:14.562Z,12.38
2017-11-23T21:39:42.962Z,12.38
2017-11-23T21:42:11.301Z,12.40
2017-11-23T21:44:38.861Z,12.37
2017-11-23T21:47:06.468Z,12.46
2017-11-23T21:49:34.033Z,12.50
2017-11-23T21:52:01.589Z,12.63
2017-11-23T21:54:29.161Z,12.75
2017-11-23T21:56:56.729Z,12.61
2017-11-23T21:59:24.305Z,12.73
2017-11-23T22:01:51.866Z,12.75
2017-11-23T22:04:19.460Z,12.68
2017-11-23T22:06:47.039Z,12.62
2017-11-23T22:09:14.603Z,12.63
2017-11-23T22:11:42.166Z,12.63
2017-11-23T22:14:09.732Z,12.64
2017-11-23T22:16:37.299Z,12.59
2017-11-23T22:19:04.862Z,12.53
2017-11-23T22:21:33.209Z,12.67
2017-11-23T22:24:00.773Z,12.56
2017-11-23T22:26:28.338Z,12.59
2017-11-23T22:28:55.934Z,12.55
2017-11-23T22:31:24.330Z,12.58
2017-11-23T22:33:51.890Z,12.58
2017-11-23T22:36:20.141Z,12.66
2017-11-23T22:38:48.014Z,12.63
2017-11-23T22:41:15.570Z,12.71
2017-11-23T22:43:43.161Z,12.69
2017-11-23T22:46:10.726Z,12.74
2017-11-23T22:48:38.281Z,12.92
2017-11-23T22:51:05.835Z,12.83
2017-11-23T22:53:33.397Z,12.75
2017-11-23T22:56:01.753Z,12.71
2017-11-23T22:58:30.071Z,12.92
2017-11-23T23:00:58.396Z,12.96
2017-11-23T23:03:26.857Z,12.86
2017-11-23T23:05:54.413Z,12.70
2017-11-23T23:08:21.966Z,12.63
2017-11-23T23:10:49.540Z,12.73
2017-11-23T23:13:17.110Z,12.70
2017-11-23T23:15:44.675Z,12.64
2017-11-23T23:18:13.138Z,12.59
2017-11-23T23:20:40.706Z,12.53
2017-11-23T23:23:08.269Z,12.48
2017-11-23T23:25:35.837Z,12.44
2017-11-23T23:28:04.216Z,12.45
2017-11-23T23:30:31.774Z,12.51
2017-11-23T23:32:59.346Z,12.50
2017-11-23T23:35:26.955Z,12.56
2017-11-23T23:37:55.336Z,12.57
2017-11-23T23:40:22.929Z,12.53
2017-11-23T23:42:50.495Z,12.40
2017-11-23T23:45:18.960Z,12.34
2017-11-23T23:47:47.321Z,12.38
2017-11-23T23:50:15.780Z,12.41
2017-11-23T23:52:43.342Z,12.59
2017-11-23T23:55:11.797Z,12.63
2017-11-23T23:57:40.129Z,12.74
